createdAt,value
2022-11-29T00:00:58.956Z,4.7
2022-11-29T00:02:16.032Z,4.7
2022-11-29T00:03:33.008Z,4.4
2022-11-29T00:04:49.948Z,4.3
2022-11-29T00:06:06.963Z,4.2
2022-11-29T00:07:23.992Z,4.1
2022-11-29T00:08:40.983Z,4.1
2022-11-29T00:09:57.958Z,4.2
2022-11-29T00:11:14.957Z,4.1
2022-11-29T00:12:31.968Z,4.1
2022-11-29T00:13:48.986Z,4.2
2022-11-29T00:15:06.161Z,4.2
2022-11-29T00:16:23.011Z,4.2
2022-11-29T00:17:39.975Z,4.2
2022-11-29T00:18:57.028Z,4.3
2022-11-29T00:20:14.088Z,4.3
2022-11-29T00:21:30.972Z,4.3
2022-11-29T00:22:47.971Z,4.3
2022-11-29T00:24:05.000Z,4.3
2022-11-29T00:25:21.990Z,4.2
2022-11-29T00:26:39.044Z,4.2
2022-11-29T00:27:56.356Z,4.3
2022-11-29T00:29:13.036Z,4.4
2022-11-29T00:30:30.047Z,4.4
2022-11-29T00:31:46.976Z,4.5
2022-11-29T00:33:04.083Z,4.5
2022-11-29T00:34:21.139Z,4.6
2022-11-29T00:35:38.022Z,4.7
2022-11-29T00:36:54.993Z,4.7
2022-11-29T00:38:11.988Z,4.7
2022-11-29T00:39:29.024Z,4.7
2022-11-29T00:40:46.053Z,4.7
2022-11-29T00:42:02.997Z,4.6
2022-11-29T00:43:20.018Z,4.5
2022-11-29T00:44:36.998Z,4.5
2022-11-29T00:45:54.098Z,4.4
2022-11-29T00:47:11.004Z,4.3
2022-11-29T00:48:28.008Z,4.1
2022-11-29T00:49:45.035Z,4
2022-11-29T00:51:02.063Z,4.1
2022-11-29T00:52:19.016Z,4.1
2022-11-29T00:53:36.072Z,4
2022-11-29T00:54:53.010Z,4
2022-11-29T00:56:10.093Z,3.9
2022-11-29T00:57:27.020Z,3.8
2022-11-29T00:58:44.023Z,3.7
2022-11-29T01:00:01.164Z,3.7
2022-11-29T01:01:18.101Z,3.9
2022-11-29T01:02:35.090Z,4
2022-11-29T01:03:52.046Z,4.2
2022-11-29T01:05:09.098Z,4.3
2022-11-29T01:06:26.657Z,4.5
2022-11-29T01:07:44.107Z,4.5
2022-11-29T01:09:01.192Z,4.5
2022-11-29T01:10:18.051Z,4.5
2022-11-29T01:11:35.026Z,4.5
2022-11-29T01:12:52.035Z,4.5
2022-11-29T01:14:09.064Z,4.6
2022-11-29T01:15:26.071Z,4.6
2022-11-29T01:16:43.095Z,4.6
2022-11-29T01:18:00.038Z,4.6
2022-11-29T01:19:17.070Z,4.6
2022-11-29T01:20:34.075Z,4.8
2022-11-29T01:21:51.099Z,4.8
2022-11-29T01:23:08.082Z,4.8
2022-11-29T01:24:25.077Z,5
2022-11-29T01:25:42.075Z,5.1
2022-11-29T01:26:59.062Z,5.1
2022-11-29T01:28:16.114Z,5.1
2022-11-29T01:29:33.059Z,5
2022-11-29T01:30:50.123Z,5
2022-11-29T01:32:07.113Z,5
2022-11-29T01:33:24.087Z,5.1
2022-11-29T01:34:41.522Z,5.3
2022-11-29T01:35:58.097Z,5.3
2022-11-29T01:37:15.110Z,5.3
2022-11-29T01:38:32.068Z,5.2
2022-11-29T01:39:49.099Z,5
2022-11-29T01:41:06.101Z,4.9
2022-11-29T01:42:23.106Z,4.9
2022-11-29T01:43:40.091Z,5.1
2022-11-29T01:44:57.087Z,5.3
2022-11-29T01:46:14.139Z,5.4
2022-11-29T01:47:31.108Z,5.3
2022-11-29T01:48:48.082Z,5.1
2022-11-29T01:50:05.182Z,5
2022-11-29T01:51:22.132Z,5
2022-11-29T01:52:39.086Z,5
2022-11-29T01:53:56.167Z,5.1
2022-11-29T01:55:13.111Z,5.2
2022-11-29T01:56:30.103Z,5
2022-11-29T01:57:47.102Z,4.9
2022-11-29T01:59:04.115Z,4.8
2022-11-29T02:00:21.407Z,4.8
2022-11-29T02:01:38.275Z,4.8
2022-11-29T02:02:55.200Z,5
2022-11-29T02:04:12.112Z,5.2
2022-11-29T02:05:29.123Z,5.3
2022-11-29T02:06:46.775Z,5.3
2022-11-29T02:08:04.107Z,5.3
2022-11-29T02:09:21.161Z,5.3
2022-11-29T02:10:38.147Z,5.3
2022-11-29T02:11:55.117Z,5.4
2022-11-29T02:13:12.114Z,5.4
2022-11-29T02:14:29.131Z,5.4
2022-11-29T02:15:46.245Z,5.4
2022-11-29T02:17:03.116Z,5.5
2022-11-29T02:18:20.130Z,5.6
2022-11-29T02:19:37.117Z,5.7
2022-11-29T02:20:54.172Z,5.6
2022-11-29T02:22:11.166Z,5.4
2022-11-29T02:23:28.136Z,5.3
2022-11-29T02:24:45.448Z,5.1
2022-11-29T02:26:02.167Z,5.1
2022-11-29T02:27:19.161Z,5
2022-11-29T02:28:36.159Z,4.9
2022-11-29T02:29:53.165Z,4.9
2022-11-29T02:31:10.215Z,4.9
2022-11-29T02:32:27.172Z,4.9
2022-11-29T02:33:44.170Z,4.9
2022-11-29T02:35:01.189Z,4.9
2022-11-29T02:36:18.146Z,5.1
2022-11-29T02:37:35.215Z,5.2
2022-11-29T02:38:52.224Z,5.2
2022-11-29T02:40:09.200Z,5.2
2022-11-29T02:41:26.156Z,5.2
2022-11-29T02:42:43.147Z,5.3
2022-11-29T02:44:00.186Z,5.4
2022-11-29T02:45:17.150Z,5.5
2022-11-29T02:46:34.180Z,5.5
2022-11-29T02:47:51.186Z,5.6
2022-11-29T02:49:08.194Z,5.6
2022-11-29T02:50:25.248Z,5.6
2022-11-29T02:51:42.165Z,5.6
2022-11-29T02:52:59.192Z,5.5
2022-11-29T02:54:16.216Z,5.5
2022-11-29T02:55:33.253Z,5.4
2022-11-29T02:56:50.176Z,5.5
2022-11-29T02:58:07.199Z,5.6
2022-11-29T02:59:24.274Z,5.6
2022-11-29T03:00:41.208Z,5.6
2022-11-29T03:01:58.207Z,5.5
2022-11-29T03:03:15.209Z,5.5
2022-11-29T03:04:32.229Z,5.6
2022-11-29T03:05:49.216Z,5.5
2022-11-29T03:07:06.199Z,5.5
2022-11-29T03:08:23.217Z,5.5
2022-11-29T03:09:40.219Z,5.5
2022-11-29T03:10:57.193Z,5.5
2022-11-29T03:12:14.190Z,5.6
2022-11-29T03:13:31.197Z,5.6
2022-11-29T03:14:48.231Z,5.6
2022-11-29T03:16:05.517Z,5.5
2022-11-29T03:17:22.238Z,5.5
2022-11-29T03:18:39.228Z,5.6
2022-11-29T03:19:56.262Z,5.5
2022-11-29T03:21:13.210Z,5.4
2022-11-29T03:22:30.266Z,5.4
2022-11-29T03:23:47.228Z,5.3
2022-11-29T03:25:04.328Z,5.2
2022-11-29T03:26:21.226Z,5.2
2022-11-29T03:27:38.268Z,5.2
2022-11-29T03:28:55.202Z,5.1
2022-11-29T03:30:12.222Z,5.1
2022-11-29T03:31:29.346Z,5.2
2022-11-29T03:32:46.270Z,5.2
2022-11-29T03:34:03.220Z,5.2
2022-11-29T03:35:20.222Z,5.3
2022-11-29T03:36:37.466Z,5.4
2022-11-29T03:37:54.252Z,5.5
2022-11-29T03:39:11.244Z,5.5
2022-11-29T03:40:28.226Z,5.5
2022-11-29T03:41:45.256Z,5.4
2022-11-29T03:43:02.572Z,5.2
2022-11-29T03:44:19.241Z,5.1
2022-11-29T03:45:36.332Z,4.9
2022-11-29T03:46:53.308Z,4.8
2022-11-29T03:48:10.315Z,4.8
2022-11-29T03:49:27.275Z,4.7
2022-11-29T03:50:44.248Z,4.6
2022-11-29T03:52:01.499Z,4.5
2022-11-29T03:53:18.252Z,4.5
2022-11-29T03:54:35.320Z,4.5
2022-11-29T03:55:52.252Z,4.6
2022-11-29T03:57:09.290Z,4.5
2022-11-29T03:58:26.248Z,4.4
2022-11-29T03:59:43.281Z,4.4
2022-11-29T04:01:00.252Z,4.3
2022-11-29T04:02:17.590Z,4.3
2022-11-29T04:03:34.268Z,4.4
2022-11-29T04:04:52.100Z,4.4
2022-11-29T04:06:09.266Z,4.4
2022-11-29T04:07:26.541Z,4.4
2022-11-29T04:08:43.330Z,4.3
2022-11-29T04:10:00.291Z,4.3
2022-11-29T04:11:17.274Z,4.2
2022-11-29T04:12:34.290Z,4.2
2022-11-29T04:13:51.271Z,4.3
2022-11-29T04:15:11.567Z,4.3
2022-11-29T04:16:25.390Z,4.2
2022-11-29T04:17:42.282Z,4.2
2022-11-29T04:18:59.267Z,4.2
2022-11-29T04:20:16.279Z,4.1
2022-11-29T04:21:33.309Z,4.1
2022-11-29T04:22:50.292Z,4.1
2022-11-29T04:24:07.286Z,4.2
2022-11-29T04:25:24.756Z,4.3
2022-11-29T04:26:41.277Z,4.3
2022-11-29T04:27:58.289Z,4.3
2022-11-29T04:29:15.290Z,4.3
2022-11-29T04:30:32.318Z,4.2
2022-11-29T04:31:49.294Z,4.3
2022-11-29T04:33:06.291Z,4.3
2022-11-29T04:34:23.402Z,4.4
2022-11-29T04:35:40.348Z,4.4
2022-11-29T04:36:57.301Z,4.5
2022-11-29T04:38:14.296Z,4.5
2022-11-29T04:39:31.296Z,4.5
2022-11-29T04:40:48.349Z,4.4
2022-11-29T04:42:05.318Z,4.3
2022-11-29T04:43:22.311Z,4.3
2022-11-29T04:44:39.306Z,4.4
2022-11-29T04:45:56.389Z,4.3
2022-11-29T04:47:13.361Z,4.3
2022-11-29T04:48:30.316Z,4.2
2022-11-29T04:49:47.312Z,4.3
2022-11-29T04:51:04.386Z,4.3
2022-11-29T04:52:21.344Z,4.2
2022-11-29T04:53:38.335Z,4.1
2022-11-29T04:54:55.315Z,4
2022-11-29T04:56:12.354Z,4.1
2022-11-29T04:57:29.345Z,4.1
2022-11-29T04:58:46.357Z,4.2
2022-11-29T05:00:03.343Z,4.4
2022-11-29T05:01:20.484Z,4.4
2022-11-29T05:02:37.375Z,4.5
2022-11-29T05:03:57.153Z,4.5
2022-11-29T05:05:11.338Z,4.6
2022-11-29T05:06:28.384Z,4.7
2022-11-29T05:07:45.377Z,4.6
2022-11-29T05:09:02.338Z,4.5
2022-11-29T05:10:19.338Z,4.4
2022-11-29T05:11:36.447Z,4.3
2022-11-29T05:12:53.340Z,4.3
2022-11-29T05:14:10.348Z,4.3
2022-11-29T05:15:27.341Z,4.3
2022-11-29T05:16:44.374Z,4.5
2022-11-29T05:18:01.629Z,4.5
2022-11-29T05:19:18.348Z,4.6
2022-11-29T05:20:35.340Z,4.6
2022-11-29T05:21:52.354Z,4.6
2022-11-29T05:23:09.665Z,4.6
2022-11-29T05:24:26.357Z,4.7
2022-11-29T05:25:43.387Z,4.8
2022-11-29T05:27:00.391Z,4.8
2022-11-29T05:28:17.384Z,4.8
2022-11-29T05:29:34.378Z,4.8
2022-11-29T05:30:51.386Z,4.8
2022-11-29T05:32:08.407Z,4.8
2022-11-29T05:33:25.391Z,4.6
2022-11-29T05:34:42.367Z,4.5
2022-11-29T05:35:59.399Z,4.3
2022-11-29T05:37:16.378Z,4.1
2022-11-29T05:38:33.395Z,4
2022-11-29T05:39:50.391Z,3.9
2022-11-29T05:41:07.402Z,3.9
2022-11-29T05:42:24.412Z,3.9
2022-11-29T05:43:41.462Z,4
2022-11-29T05:44:58.391Z,3.9
2022-11-29T05:46:15.411Z,4
2022-11-29T05:47:32.414Z,4.1
2022-11-29T05:48:49.424Z,4.1
2022-11-29T05:50:06.398Z,4.2
2022-11-29T05:51:23.465Z,4.2
2022-11-29T05:52:40.387Z,4.1
2022-11-29T05:53:57.453Z,4.2
2022-11-29T05:55:14.390Z,4.1
2022-11-29T05:56:31.389Z,4.2
2022-11-29T05:57:48.429Z,4.1
2022-11-29T05:59:05.474Z,4
2022-11-29T06:00:22.407Z,4
2022-11-29T06:01:39.486Z,4
2022-11-29T06:02:56.422Z,4.1
2022-11-29T06:04:15.065Z,4.1
2022-11-29T06:05:30.448Z,4.2
2022-11-29T06:06:47.416Z,4.1
2022-11-29T06:08:04.485Z,4.2
2022-11-29T06:09:21.440Z,4.1
2022-11-29T06:10:38.420Z,4.1
2022-11-29T06:11:55.413Z,4
2022-11-29T06:13:12.459Z,4.1
2022-11-29T06:14:29.579Z,4.1
2022-11-29T06:15:47.835Z,4.2
2022-11-29T06:17:04.419Z,4.2
2022-11-29T06:18:21.433Z,4.3
2022-11-29T06:19:38.416Z,4.3
2022-11-29T06:20:55.485Z,4.3
2022-11-29T06:22:12.427Z,4.4
2022-11-29T06:23:29.432Z,4.4
2022-11-29T06:24:46.784Z,4.2
2022-11-29T06:26:04.171Z,4.1
2022-11-29T06:27:20.484Z,4.2
2022-11-29T06:28:37.511Z,4.3
2022-11-29T06:29:54.540Z,4.2
2022-11-29T06:31:11.530Z,4.2
2022-11-29T06:32:28.522Z,4.3
2022-11-29T06:33:45.447Z,4.3
2022-11-29T06:35:02.506Z,4.3
2022-11-29T06:36:19.462Z,4.3
2022-11-29T06:37:36.492Z,4.5
2022-11-29T06:38:53.461Z,4.6
2022-11-29T06:40:10.616Z,4.5
2022-11-29T06:41:27.458Z,4.5
2022-11-29T06:42:44.480Z,4.4
2022-11-29T06:44:01.713Z,4.4
2022-11-29T06:45:18.453Z,4.4
2022-11-29T06:46:35.463Z,4.6
2022-11-29T06:47:52.478Z,4.7
2022-11-29T06:49:09.470Z,4.6
2022-11-29T06:50:26.466Z,4.7
2022-11-29T06:51:43.501Z,4.7
2022-11-29T06:53:00.463Z,4.6
2022-11-29T06:54:17.461Z,4.6
2022-11-29T06:55:34.497Z,4.5
2022-11-29T06:56:51.471Z,4.4
2022-11-29T06:58:08.503Z,4.4
2022-11-29T06:59:25.757Z,4.4
2022-11-29T07:00:42.569Z,4.4
2022-11-29T07:01:59.560Z,4.4
2022-11-29T07:03:16.495Z,4.4
2022-11-29T07:04:33.484Z,4.4
2022-11-29T07:05:50.503Z,4.4
2022-11-29T07:07:07.652Z,4.4
2022-11-29T07:08:24.485Z,4.4
2022-11-29T07:09:41.491Z,4.5
2022-11-29T07:10:58.513Z,4.6
2022-11-29T07:12:15.491Z,4.8
2022-11-29T07:13:35.487Z,4.8
2022-11-29T07:14:52.521Z,4.8
2022-11-29T07:16:09.576Z,4.8
2022-11-29T07:17:26.508Z,4.8
2022-11-29T07:18:43.495Z,4.8
2022-11-29T07:20:00.486Z,4.8
2022-11-29T07:21:17.550Z,4.9
2022-11-29T07:22:34.567Z,4.9
2022-11-29T07:23:51.507Z,4.9
2022-11-29T07:25:08.507Z,5
2022-11-29T07:26:25.505Z,5.1
2022-11-29T07:27:42.535Z,5.1
2022-11-29T07:28:59.514Z,5.2
2022-11-29T07:30:16.550Z,5.2
2022-11-29T07:31:33.610Z,5.1
2022-11-29T07:32:52.865Z,5.1
2022-11-29T07:34:07.553Z,5.1
2022-11-29T07:35:24.542Z,5.1
2022-11-29T07:36:41.555Z,5.1
2022-11-29T07:37:58.524Z,5.1
2022-11-29T07:39:15.523Z,5.1
2022-11-29T07:40:37.283Z,5.1
2022-11-29T07:41:49.623Z,5.2
2022-11-29T07:43:06.605Z,5.2
2022-11-29T07:44:23.548Z,5.2
2022-11-29T07:45:40.576Z,5.2
2022-11-29T07:46:57.560Z,5.2
2022-11-29T07:48:14.544Z,5.2
2022-11-29T07:49:31.647Z,5.3
2022-11-29T07:50:48.638Z,5.2
2022-11-29T07:52:05.549Z,5.1
2022-11-29T07:53:22.824Z,5.1
2022-11-29T07:54:39.582Z,5.2
2022-11-29T07:55:56.570Z,5.4
2022-11-29T07:57:13.573Z,5.4
2022-11-29T07:58:33.342Z,5.4
2022-11-29T07:59:50.673Z,5.5
2022-11-29T08:01:07.644Z,5.6
2022-11-29T08:02:24.612Z,5.8
2022-11-29T08:03:41.560Z,5.8
2022-11-29T08:04:58.591Z,5.8
2022-11-29T08:06:15.614Z,5.7
2022-11-29T08:07:32.649Z,5.6
2022-11-29T08:08:49.611Z,5.5
2022-11-29T08:10:06.676Z,5.6
2022-11-29T08:11:23.560Z,5.6
2022-11-29T08:12:40.559Z,5.6
2022-11-29T08:13:57.646Z,5.8
2022-11-29T08:15:14.592Z,5.9
2022-11-29T08:16:31.717Z,6.1
2022-11-29T08:17:48.612Z,6.1
2022-11-29T08:19:05.916Z,6
2022-11-29T08:20:22.697Z,6
2022-11-29T08:21:39.577Z,6
2022-11-29T08:22:56.586Z,6
2022-11-29T08:24:13.651Z,5.9
2022-11-29T08:25:30.600Z,5.9
2022-11-29T08:26:47.588Z,6
2022-11-29T08:28:04.611Z,6
2022-11-29T08:29:21.771Z,6
2022-11-29T08:30:38.628Z,5.9
2022-11-29T08:31:55.712Z,5.8
2022-11-29T08:33:12.624Z,5.7
2022-11-29T08:34:29.689Z,5.6
2022-11-29T08:35:46.630Z,5.7
2022-11-29T08:37:03.594Z,5.8
2022-11-29T08:38:20.719Z,5.8
2022-11-29T08:39:37.651Z,5.8
2022-11-29T08:40:54.601Z,5.9
2022-11-29T08:42:11.651Z,5.9
2022-11-29T08:43:28.606Z,5.9
2022-11-29T08:44:45.900Z,6
2022-11-29T08:46:02.739Z,6.1
2022-11-29T08:47:19.641Z,6
2022-11-29T08:48:36.643Z,5.9
2022-11-29T08:49:53.765Z,5.9
2022-11-29T08:51:10.795Z,6
2022-11-29T08:52:27.670Z,6.1
2022-11-29T08:53:44.899Z,6.2
2022-11-29T08:55:03.375Z,6.3
2022-11-29T08:57:40.402Z,6.3
2022-11-29T08:58:52.635Z,6.2
2022-11-29T09:00:09.816Z,6.2
2022-11-29T09:01:26.741Z,6.3
2022-11-29T09:02:43.732Z,6.4
2022-11-29T09:04:00.710Z,6.4
2022-11-29T09:05:17.768Z,6.5
2022-11-29T09:06:34.661Z,6.5
2022-11-29T09:07:51.722Z,6.5
2022-11-29T09:09:08.700Z,6.5
2022-11-29T09:10:25.692Z,6.5
2022-11-29T09:11:45.833Z,6.5
2022-11-29T09:12:59.699Z,6.4
2022-11-29T09:14:16.742Z,6.4
2022-11-29T09:15:33.677Z,6.3
2022-11-29T09:16:50.667Z,6.3
2022-11-29T09:18:07.718Z,6.4
2022-11-29T09:19:24.674Z,6.3
2022-11-29T09:20:41.941Z,6.3
2022-11-29T09:21:58.741Z,6.4
2022-11-29T09:23:15.646Z,6.5
2022-11-29T09:24:32.728Z,6.5
2022-11-29T09:25:49.694Z,6.6
2022-11-29T09:27:07.506Z,6.5
2022-11-29T09:28:23.731Z,6.6
2022-11-29T09:29:40.777Z,6.5
2022-11-29T09:30:57.691Z,6.4
2022-11-29T09:32:14.684Z,6.6
2022-11-29T09:33:31.740Z,6.7
2022-11-29T09:34:48.878Z,6.6
2022-11-29T09:36:05.789Z,6.4
2022-11-29T09:37:22.702Z,6.3
2022-11-29T09:38:39.673Z,6.3
2022-11-29T09:39:56.765Z,6.2
2022-11-29T09:41:13.739Z,6.2
2022-11-29T09:42:30.689Z,6.2
2022-11-29T09:43:47.731Z,6.3
2022-11-29T09:45:04.795Z,6.5
2022-11-29T09:46:21.771Z,6.5
2022-11-29T09:47:38.681Z,6.5
2022-11-29T09:48:55.744Z,6.6
2022-11-29T09:50:12.736Z,6.6
2022-11-29T09:51:29.749Z,6.7
2022-11-29T09:52:46.723Z,6.6
2022-11-29T09:54:03.729Z,6.5
2022-11-29T09:55:20.700Z,6.5
2022-11-29T09:56:37.797Z,6.5
2022-11-29T09:57:54.985Z,6.6
2022-11-29T09:59:11.736Z,6.5
2022-11-29T10:00:28.736Z,6.6
2022-11-29T10:01:45.816Z,6.6
2022-11-29T10:03:02.990Z,6.6
2022-11-29T10:04:19.952Z,6.7
2022-11-29T10:05:36.830Z,6.8
2022-11-29T10:06:53.752Z,6.8
2022-11-29T10:08:10.713Z,6.8
2022-11-29T10:09:32.310Z,6.8
2022-11-29T10:10:45.012Z,6.8
2022-11-29T10:12:01.917Z,6.9
2022-11-29T10:13:18.734Z,6.9
2022-11-29T10:14:35.734Z,7
2022-11-29T10:15:52.746Z,7
2022-11-29T10:17:09.757Z,7
2022-11-29T10:18:26.779Z,7.1
2022-11-29T10:19:43.796Z,7.1
2022-11-29T10:21:00.807Z,7.1
2022-11-29T10:22:17.895Z,7.2
2022-11-29T10:23:34.904Z,7.3
2022-11-29T10:24:51.728Z,7.4
2022-11-29T10:26:08.731Z,7.5
2022-11-29T10:27:25.750Z,7.7
2022-11-29T10:28:42.763Z,7.7
2022-11-29T10:29:59.752Z,7.6
2022-11-29T10:31:16.829Z,7.5
2022-11-29T10:32:33.757Z,7.5
2022-11-29T10:33:50.789Z,7.7
2022-11-29T10:35:07.779Z,7.8
2022-11-29T10:36:24.758Z,7.8
2022-11-29T10:37:41.745Z,7.7
2022-11-29T10:38:58.783Z,7.5
2022-11-29T10:40:15.912Z,7.6
2022-11-29T10:41:32.807Z,7.5
2022-11-29T10:42:49.816Z,7.5
2022-11-29T10:44:06.767Z,7.5
2022-11-29T10:45:23.767Z,7.5
2022-11-29T10:46:40.763Z,7.5
2022-11-29T10:47:57.810Z,7.6
2022-11-29T10:49:14.765Z,7.7
2022-11-29T10:50:31.843Z,7.7
2022-11-29T10:51:48.942Z,7.7
2022-11-29T10:53:05.936Z,7.9
2022-11-29T10:54:22.803Z,8
2022-11-29T10:55:39.871Z,8.1
2022-11-29T10:56:56.765Z,7.9
2022-11-29T10:58:13.810Z,7.8
2022-11-29T10:59:30.788Z,7.8
2022-11-29T11:00:47.886Z,7.9
2022-11-29T11:02:05.012Z,7.9
2022-11-29T11:03:21.955Z,7.8
2022-11-29T11:04:38.803Z,7.8
2022-11-29T11:05:55.908Z,7.9
2022-11-29T11:07:12.806Z,7.8
2022-11-29T11:08:29.866Z,7.8
2022-11-29T11:09:46.827Z,7.9
2022-11-29T11:11:04.543Z,8.1
2022-11-29T11:12:21.882Z,8.3
2022-11-29T11:13:38.784Z,8.5
2022-11-29T11:14:55.826Z,8.5
2022-11-29T11:16:13.014Z,8.5
2022-11-29T11:17:29.887Z,8.7
2022-11-29T11:18:47.146Z,8.9
2022-11-29T11:20:04.055Z,8.9
2022-11-29T11:21:20.862Z,8.8
2022-11-29T11:22:37.808Z,8.8
2022-11-29T11:23:54.944Z,8.7
2022-11-29T11:25:11.883Z,8.7
2022-11-29T11:26:28.814Z,8.6
2022-11-29T11:27:45.838Z,8.6
2022-11-29T11:29:03.011Z,8.5
2022-11-29T11:30:19.903Z,8.4
2022-11-29T11:31:36.829Z,8.4
2022-11-29T11:32:53.837Z,8.3
2022-11-29T11:34:10.892Z,8.3
2022-11-29T11:35:27.829Z,8.4
2022-11-29T11:36:44.900Z,8.6
2022-11-29T11:38:01.955Z,8.7
2022-11-29T11:39:18.854Z,8.8
2022-11-29T11:40:35.900Z,8.8
2022-11-29T11:41:52.848Z,8.8
2022-11-29T11:43:09.831Z,8.9
2022-11-29T11:44:46.363Z,9
2022-11-29T11:45:44.084Z,9.1
2022-11-29T11:47:00.847Z,9.1
2022-11-29T11:48:17.861Z,9
2022-11-29T11:49:34.907Z,9
2022-11-29T11:50:51.851Z,9
2022-11-29T11:52:08.926Z,9
2022-11-29T11:53:25.850Z,9
2022-11-29T11:54:43.353Z,9
2022-11-29T11:55:59.856Z,9
2022-11-29T11:57:16.852Z,9.2
2022-11-29T11:58:33.871Z,9.3
2022-11-29T11:59:50.931Z,9.3
2022-11-29T12:01:07.928Z,9.3
2022-11-29T12:02:25.259Z,9.3
2022-11-29T12:03:41.975Z,9.4
2022-11-29T12:04:58.889Z,9.4
2022-11-29T12:06:15.873Z,9.2
2022-11-29T12:07:59.571Z,9.2
2022-11-29T12:08:49.922Z,9.2
2022-11-29T12:10:06.925Z,9.4
2022-11-29T12:11:23.949Z,9.4
2022-11-29T12:12:40.887Z,9.4
2022-11-29T12:13:57.936Z,9.5
2022-11-29T12:15:14.920Z,9.4
2022-11-29T12:16:32.041Z,9.3
2022-11-29T12:17:48.890Z,9.3
2022-11-29T12:19:06.078Z,9.3
2022-11-29T12:20:22.926Z,9.3
2022-11-29T12:21:39.884Z,9.3
2022-11-29T12:22:56.925Z,9.4
2022-11-29T12:24:13.928Z,9.4
2022-11-29T12:25:31.092Z,9.5
2022-11-29T12:26:56.768Z,9.4
2022-11-29T12:28:04.981Z,9.4
2022-11-29T12:29:21.935Z,9.4
2022-11-29T12:30:38.905Z,9.4
2022-11-29T12:31:55.929Z,9.6
2022-11-29T12:33:12.898Z,9.7
2022-11-29T12:34:29.926Z,9.8
2022-11-29T12:35:46.930Z,9.8
2022-11-29T12:37:03.944Z,9.8
2022-11-29T12:38:20.923Z,9.9
2022-11-29T12:39:37.945Z,9.9
2022-11-29T12:40:54.932Z,10
2022-11-29T12:42:12.023Z,10
2022-11-29T12:43:28.961Z,10.1
2022-11-29T12:44:46.404Z,10.1
2022-11-29T12:46:03.108Z,10
2022-11-29T12:47:36.711Z,10
2022-11-29T12:48:36.952Z,10
2022-11-29T12:49:53.929Z,9.9
2022-11-29T12:51:10.920Z,9.8
2022-11-29T12:52:28.085Z,9.7
2022-11-29T12:53:45.057Z,9.7
2022-11-29T12:55:02.111Z,9.7
2022-11-29T12:56:18.939Z,9.7
2022-11-29T12:57:35.960Z,9.7
2022-11-29T12:58:52.975Z,9.5
2022-11-29T13:00:11.218Z,9.5
2022-11-29T13:01:28.018Z,9.4
2022-11-29T13:02:45.013Z,9.5
2022-11-29T13:04:02.027Z,9.6
2022-11-29T13:05:18.951Z,9.6
2022-11-29T13:06:36.010Z,9.7
2022-11-29T13:07:53.027Z,9.7
2022-11-29T13:09:09.980Z,9.8
2022-11-29T13:10:26.977Z,9.9
2022-11-29T13:11:44.028Z,9.8
2022-11-29T13:13:01.007Z,9.8
2022-11-29T13:14:41.928Z,9.8
2022-11-29T13:15:35.137Z,9.7
2022-11-29T13:16:52.077Z,9.6
2022-11-29T13:18:09.124Z,9.5
2022-11-29T13:19:26.004Z,9.6
2022-11-29T13:20:43.039Z,9.7
2022-11-29T13:22:00.066Z,9.9
2022-11-29T13:23:17.036Z,10
2022-11-29T13:24:36.042Z,10
2022-11-29T13:25:50.979Z,10.1
2022-11-29T13:27:08.201Z,10
2022-11-29T13:28:24.984Z,10
2022-11-29T13:29:42.097Z,9.9
2022-11-29T13:30:59.083Z,9.8
2022-11-29T13:32:16.038Z,9.8
2022-11-29T13:33:33.176Z,9.7
2022-11-29T13:34:50.260Z,9.7
2022-11-29T13:36:07.232Z,9.7
2022-11-29T13:37:24.170Z,9.6
2022-11-29T13:38:41.027Z,9.7
2022-11-29T13:39:58.237Z,9.7
2022-11-29T13:41:15.154Z,9.7
2022-11-29T13:42:32.191Z,9.7
2022-11-29T13:43:49.078Z,9.6
2022-11-29T13:45:06.223Z,9.4
2022-11-29T13:46:23.033Z,9.4
2022-11-29T13:47:40.010Z,9.3
2022-11-29T13:48:57.185Z,9.2
2022-11-29T13:50:14.124Z,9.1
2022-11-29T13:51:31.059Z,9.1
2022-11-29T13:52:48.052Z,9.1
2022-11-29T13:54:05.785Z,9.2
2022-11-29T13:55:23.062Z,9.1
2022-11-29T13:56:40.181Z,9
2022-11-29T13:59:14.103Z,8.8
2022-11-29T14:00:31.116Z,8.7
2022-11-29T14:01:48.267Z,8.5
2022-11-29T14:03:05.090Z,8.4
2022-11-29T14:04:22.049Z,8.4
2022-11-29T14:05:39.089Z,8.3
2022-11-29T14:06:56.050Z,8.2
2022-11-29T14:08:17.739Z,8.2
2022-11-29T14:09:30.047Z,8.3
2022-11-29T14:10:47.118Z,8.3
2022-11-29T14:12:04.139Z,8.4
2022-11-29T14:13:21.060Z,8.5
2022-11-29T14:14:38.034Z,8.6
2022-11-29T14:15:55.124Z,8.7
2022-11-29T14:17:12.089Z,8.7
2022-11-29T14:18:29.042Z,8.9
2022-11-29T14:19:46.042Z,8.9
2022-11-29T14:21:03.077Z,9
2022-11-29T14:22:20.086Z,9
2022-11-29T14:23:37.126Z,9
2022-11-29T14:24:54.053Z,9
2022-11-29T14:26:11.094Z,8.9
2022-11-29T14:27:28.049Z,8.9
2022-11-29T14:28:45.140Z,8.9
2022-11-29T14:30:02.412Z,8.9
2022-11-29T14:31:19.147Z,8.9
2022-11-29T14:32:36.062Z,8.8
2022-11-29T14:33:53.079Z,8.8
2022-11-29T14:35:10.073Z,8.8
2022-11-29T14:36:27.088Z,8.7
2022-11-29T14:37:44.085Z,8.7
2022-11-29T14:39:01.087Z,8.6
2022-11-29T14:40:18.088Z,8.5
2022-11-29T14:41:35.403Z,8.6
2022-11-29T14:42:52.083Z,8.7
2022-11-29T14:44:09.083Z,8.7
2022-11-29T14:45:26.092Z,8.7
2022-11-29T14:46:43.142Z,8.7
2022-11-29T14:48:00.101Z,8.8
2022-11-29T14:49:17.090Z,8.7
2022-11-29T14:50:34.141Z,8.7
2022-11-29T14:51:51.094Z,8.6
2022-11-29T14:53:08.094Z,8.5
2022-11-29T14:54:25.089Z,8.4
2022-11-29T14:55:42.154Z,8.3
2022-11-29T14:56:59.122Z,8.2
2022-11-29T14:58:16.235Z,8.1
2022-11-29T14:59:33.120Z,8.1
2022-11-29T15:00:50.184Z,8
2022-11-29T15:02:07.348Z,8
2022-11-29T15:05:28.137Z,8.1
2022-11-29T15:06:50.099Z,8.2
2022-11-29T15:08:02.155Z,8.3
2022-11-29T15:09:19.124Z,8.4
2022-11-29T15:10:36.120Z,8.5
2022-11-29T15:11:53.151Z,8.5
2022-11-29T15:13:10.151Z,8.6
2022-11-29T15:14:27.190Z,8.6
2022-11-29T15:15:44.151Z,8.5
2022-11-29T15:17:01.188Z,8.5
2022-11-29T15:18:18.133Z,8.5
2022-11-29T15:19:35.277Z,8.6
2022-11-29T15:20:52.136Z,8.7
2022-11-29T15:22:09.192Z,8.8
2022-11-29T15:23:26.149Z,8.9
2022-11-29T15:24:43.318Z,8.9
2022-11-29T15:26:00.136Z,9
2022-11-29T15:27:17.197Z,9.2
2022-11-29T15:28:34.189Z,9.2
2022-11-29T15:29:51.172Z,9.2
2022-11-29T15:31:08.246Z,9.3
2022-11-29T15:32:25.174Z,9.3
2022-11-29T15:33:42.218Z,9.3
2022-11-29T15:34:59.150Z,9.3
2022-11-29T15:36:16.162Z,9.3
2022-11-29T15:37:33.148Z,9.4
2022-11-29T15:38:50.180Z,9.3
2022-11-29T15:40:07.237Z,9.3
2022-11-29T15:41:24.175Z,9.3
2022-11-29T15:42:41.545Z,9.3
2022-11-29T15:43:58.278Z,9.4
2022-11-29T15:45:15.226Z,9.4
2022-11-29T15:46:32.161Z,9.2
2022-11-29T15:47:50.197Z,9
2022-11-29T15:49:07.232Z,8.9
2022-11-29T15:50:24.201Z,8.7
2022-11-29T15:51:41.167Z,8.4
2022-11-29T15:52:58.174Z,8.3
2022-11-29T15:54:15.237Z,8.4
2022-11-29T15:55:32.208Z,8.5
2022-11-29T15:56:49.598Z,8.6
2022-11-29T15:58:08.844Z,8.8
2022-11-29T15:59:23.201Z,9
2022-11-29T16:00:40.285Z,9.1
2022-11-29T16:01:57.281Z,9.2
2022-11-29T16:03:14.176Z,9.2
2022-11-29T16:04:31.258Z,9.1
2022-11-29T16:05:48.207Z,8.9
2022-11-29T16:07:05.179Z,8.6
2022-11-29T16:08:22.200Z,8.5
2022-11-29T16:09:39.528Z,8.4
2022-11-29T16:10:57.214Z,8.2
2022-11-29T16:12:14.202Z,8.1
2022-11-29T16:13:31.287Z,8.1
2022-11-29T16:14:48.302Z,8.1
2022-11-29T16:16:05.244Z,8.1
2022-11-29T16:17:22.210Z,8.1
2022-11-29T16:18:39.236Z,8
2022-11-29T16:19:56.215Z,8
2022-11-29T16:21:13.255Z,7.9
2022-11-29T16:22:30.231Z,7.8
2022-11-29T16:23:47.267Z,7.6
2022-11-29T16:25:04.258Z,7.5
2022-11-29T16:28:12.236Z,7.3
2022-11-29T16:29:29.222Z,7.2
2022-11-29T16:30:46.258Z,7.1
2022-11-29T16:32:03.342Z,7
2022-11-29T16:33:20.475Z,6.9
2022-11-29T16:34:37.226Z,6.8
2022-11-29T16:35:54.228Z,6.8
2022-11-29T16:37:11.345Z,6.7
2022-11-29T16:38:28.229Z,6.6
2022-11-29T16:39:45.261Z,6.5
2022-11-29T16:41:02.251Z,6.4
2022-11-29T16:42:24.839Z,6.3
2022-11-29T16:43:36.362Z,6.4
2022-11-29T16:44:53.266Z,6.5
2022-11-29T16:46:10.296Z,6.5
2022-11-29T16:47:27.244Z,6.5
2022-11-29T16:48:44.245Z,6.4
2022-11-29T16:50:01.494Z,6.5
2022-11-29T16:51:18.249Z,6.6
2022-11-29T16:52:35.326Z,6.7
2022-11-29T16:53:52.338Z,6.7
2022-11-29T16:55:09.253Z,6.6
2022-11-29T16:56:26.309Z,6.6
2022-11-29T16:57:43.252Z,6.6
2022-11-29T16:59:16.888Z,6.5
2022-11-29T17:00:17.428Z,6.5
2022-11-29T17:01:34.372Z,6.4
2022-11-29T17:02:51.343Z,6.4
2022-11-29T17:04:08.317Z,6.4
2022-11-29T17:05:25.263Z,6.3
2022-11-29T17:06:42.271Z,6.3
2022-11-29T17:07:59.391Z,6.5
2022-11-29T17:09:16.531Z,6.5
2022-11-29T17:10:34.157Z,6.6
2022-11-29T17:11:51.279Z,6.6
2022-11-29T17:13:08.534Z,6.5
2022-11-29T17:14:25.677Z,6.4
2022-11-29T17:15:42.305Z,6.4
2022-11-29T17:17:02.078Z,6.2
2022-11-29T17:18:19.370Z,6.2
2022-11-29T17:19:36.367Z,6.2
2022-11-29T17:20:53.284Z,6.1
2022-11-29T17:22:10.373Z,6
2022-11-29T17:23:27.303Z,5.9
2022-11-29T17:24:47.863Z,5.9
2022-11-29T17:26:01.286Z,5.9
2022-11-29T17:27:18.356Z,5.8
2022-11-29T17:28:35.477Z,5.8
2022-11-29T17:29:52.302Z,5.8
2022-11-29T17:31:09.314Z,5.8
2022-11-29T17:32:27.101Z,5.8
2022-11-29T17:33:43.302Z,5.8
2022-11-29T17:35:00.296Z,5.9
2022-11-29T17:36:17.352Z,6
2022-11-29T17:37:34.363Z,6.1
2022-11-29T17:38:51.314Z,6.3
2022-11-29T17:40:08.422Z,6.2
2022-11-29T17:41:25.314Z,6.3
2022-11-29T17:42:42.340Z,6.3
2022-11-29T17:43:59.316Z,6.4
2022-11-29T17:45:16.359Z,6.5
2022-11-29T17:46:33.310Z,6.3
2022-11-29T17:47:50.375Z,6.3
2022-11-29T17:49:07.339Z,6.3
2022-11-29T17:50:24.328Z,6.2
2022-11-29T17:51:56.691Z,6.2
2022-11-29T17:52:58.369Z,6.3